createdAt,value
2023-05-07T00:01:18.173Z,2.13
2023-05-07T00:03:47.177Z,1.98
2023-05-07T00:06:17.225Z,1.77
2023-05-07T00:08:45.460Z,2.13
2023-05-07T00:11:13.697Z,2.38
2023-05-07T00:13:41.830Z,1.92
2023-05-07T00:16:10.033Z,1.70
2023-05-07T00:18:38.280Z,1.70
2023-05-07T00:21:06.503Z,2.03
2023-05-07T00:23:36.141Z,1.85
2023-05-07T00:26:04.985Z,2.10
2023-05-07T00:28:33.289Z,2.13
2023-05-07T00:31:01.470Z,1.83
2023-05-07T00:33:29.641Z,1.98
2023-05-07T00:35:57.797Z,2.05
2023-05-07T00:38:25.962Z,2.30
2023-05-07T00:40:55.476Z,2.00
2023-05-07T00:43:23.632Z,2.58
2023-05-07T00:45:52.189Z,2.13
2023-05-07T00:48:20.852Z,2.10
2023-05-07T00:50:49.351Z,2.20
2023-05-07T00:53:17.504Z,2.15
2023-05-07T00:55:45.836Z,2.00
2023-05-07T00:58:15.617Z,2.10
2023-05-07T01:00:43.767Z,1.83
2023-05-07T01:03:11.943Z,2.05
2023-05-07T01:05:41.099Z,2.30
2023-05-07T01:08:09.852Z,2.08
2023-05-07T01:10:38.100Z,2.42
2023-05-07T01:13:07.157Z,2.25
2023-05-07T01:15:36.695Z,2.30
2023-05-07T01:18:05.068Z,2.45
2023-05-07T01:20:33.362Z,2.00
2023-05-07T01:23:03.579Z,2.30
2023-05-07T01:25:32.192Z,2.40
2023-05-07T01:28:02.278Z,2.25
2023-05-07T01:30:31.857Z,2.38
2023-05-07T01:33:03.709Z,2.25
2023-05-07T01:35:36.452Z,2.15
2023-05-07T01:38:07.233Z,2.42
2023-05-07T01:40:36.565Z,2.42
2023-05-07T01:43:05.370Z,1.77
2023-05-07T01:45:33.967Z,2.20
2023-05-07T01:48:03.052Z,1.70
2023-05-07T01:50:31.944Z,1.85
2023-05-07T01:53:00.344Z,1.95
2023-05-07T01:55:30.216Z,2.20
2023-05-07T01:57:58.347Z,1.83
2023-05-07T02:00:27.469Z,1.60
2023-05-07T02:02:55.846Z,2.00
2023-05-07T02:05:24.155Z,1.70
2023-05-07T02:07:52.318Z,2.20
2023-05-07T02:10:20.457Z,2.40
2023-05-07T02:12:50.076Z,2.20
2023-05-07T02:15:18.376Z,2.22
2023-05-07T02:18:01.345Z,1.77
2023-05-07T02:20:29.857Z,2.00
2023-05-07T02:22:58.161Z,2.10
2023-05-07T02:25:26.477Z,1.60
2023-05-07T02:27:56.072Z,1.85
2023-05-07T02:30:24.777Z,2.03
2023-05-07T02:32:53.069Z,1.73
2023-05-07T02:35:21.273Z,2.00
2023-05-07T02:37:49.402Z,2.00
2023-05-07T02:40:17.534Z,1.63
2023-05-07T02:42:45.732Z,1.67
2023-05-07T02:45:15.531Z,1.80
2023-05-07T02:47:43.723Z,1.80
2023-05-07T02:50:12.938Z,1.80
2023-05-07T02:52:41.627Z,2.10
2023-05-07T02:55:10.543Z,1.67
2023-05-07T02:57:38.798Z,1.80
2023-05-07T03:00:16.696Z,1.73
2023-05-07T03:02:44.920Z,1.70
2023-05-07T03:05:13.718Z,1.42
2023-05-07T03:07:42.046Z,1.83
2023-05-07T03:10:11.006Z,1.88
2023-05-07T03:12:39.963Z,1.80
2023-05-07T03:15:09.233Z,2.00
2023-05-07T03:17:38.876Z,2.00
2023-05-07T03:20:08.488Z,1.63
2023-05-07T03:22:36.899Z,1.88
2023-05-07T03:25:05.491Z,1.77
2023-05-07T03:27:33.789Z,1.83
2023-05-07T03:30:02.045Z,1.88
2023-05-07T03:32:30.349Z,1.50
2023-05-07T03:34:59.902Z,1.90
2023-05-07T03:37:28.122Z,1.70
2023-05-07T03:39:56.318Z,1.92
2023-05-07T03:42:24.780Z,1.95
2023-05-07T03:44:52.932Z,2.10
2023-05-07T03:47:21.073Z,1.77
2023-05-07T03:49:49.955Z,1.92
2023-05-07T03:52:23.384Z,1.67
2023-05-07T03:54:51.514Z,1.80
2023-05-07T03:57:19.653Z,1.95
2023-05-07T03:59:47.813Z,1.60
2023-05-07T04:02:16.043Z,2.00
2023-05-07T04:04:44.175Z,1.60
2023-05-07T04:07:12.360Z,1.90
2023-05-07T04:09:41.889Z,1.80
2023-05-07T04:12:10.068Z,1.60
2023-05-07T04:14:38.207Z,1.70
2023-05-07T04:17:06.935Z,1.60
2023-05-07T04:19:35.773Z,1.90
2023-05-07T04:22:03.923Z,1.83
2023-05-07T04:24:34.432Z,1.88
2023-05-07T04:27:03.941Z,1.77
2023-05-07T04:29:32.150Z,1.70
2023-05-07T04:32:00.361Z,1.67
2023-05-07T04:34:28.523Z,1.65
2023-05-07T04:36:59.591Z,1.90
2023-05-07T04:39:27.801Z,1.60
2023-05-07T04:41:55.957Z,1.67
2023-05-07T04:44:26.034Z,1.88
2023-05-07T04:46:54.211Z,1.60
2023-05-07T04:49:22.364Z,1.80
2023-05-07T04:51:50.514Z,1.85
2023-05-07T04:54:18.659Z,1.65
2023-05-07T04:56:46.920Z,1.58
2023-05-07T04:59:15.087Z,1.80
2023-05-07T05:01:44.723Z,1.55
2023-05-07T05:04:12.953Z,1.65
2023-05-07T05:06:41.173Z,1.60
2023-05-07T05:09:09.409Z,1.58
2023-05-07T05:11:37.564Z,1.52
2023-05-07T05:14:05.716Z,1.60
2023-05-07T05:16:33.990Z,1.63
2023-05-07T05:19:04.708Z,1.85
2023-05-07T05:21:33.518Z,1.60
2023-05-07T05:24:01.705Z,1.40
2023-05-07T05:26:29.893Z,1.55
2023-05-07T05:28:58.046Z,1.65
2023-05-07T05:31:26.256Z,1.33
2023-05-07T05:33:54.514Z,1.45
2023-05-07T05:36:24.402Z,1.50
2023-05-07T05:38:52.535Z,1.48
2023-05-07T05:41:21.596Z,1.50
2023-05-07T05:43:49.740Z,1.42
2023-05-07T05:46:17.987Z,1.48
2023-05-07T05:48:46.181Z,1.10
2023-05-07T05:51:14.400Z,1.40
2023-05-07T05:53:44.019Z,1.20
2023-05-07T05:56:12.228Z,1.23
2023-05-07T05:58:40.588Z,1.00
2023-05-07T06:01:08.799Z,1.08
2023-05-07T06:03:37.001Z,1.20
2023-05-07T06:06:05.341Z,1.00
2023-05-07T06:08:33.633Z,1.20
2023-05-07T06:11:04.361Z,1.02
2023-05-07T06:13:32.544Z,1.10
2023-05-07T06:16:00.818Z,1.10
2023-05-07T06:18:28.954Z,1.10
2023-05-07T06:20:57.120Z,1.00
2023-05-07T06:23:25.332Z,1.27
2023-05-07T06:25:53.805Z,1.15
2023-05-07T06:28:23.313Z,1.20
2023-05-07T06:30:51.906Z,1.00
2023-05-07T06:33:20.819Z,1.23
2023-05-07T06:35:49.219Z,0.95
2023-05-07T06:38:18.432Z,1.15
2023-05-07T06:40:50.131Z,1.20
2023-05-07T06:43:18.293Z,1.02
2023-05-07T06:45:47.861Z,1.60
2023-05-07T06:48:16.064Z,1.40
2023-05-07T06:50:44.588Z,1.20
2023-05-07T06:53:12.771Z,0.98
2023-05-07T06:55:40.996Z,0.80
2023-05-07T06:58:09.129Z,1.00
2023-05-07T07:00:37.296Z,0.88
2023-05-07T07:03:06.933Z,0.90
2023-05-07T07:05:35.172Z,0.90
2023-05-07T07:08:03.328Z,0.77
2023-05-07T07:10:31.448Z,0.80
2023-05-07T07:12:59.680Z,0.73
2023-05-07T07:15:29.038Z,0.80
2023-05-07T07:17:57.275Z,0.73
2023-05-07T07:20:26.997Z,0.82
2023-05-07T07:22:55.147Z,0.75
2023-05-07T07:25:23.378Z,1.10
2023-05-07T07:27:51.655Z,0.68
2023-05-07T07:30:19.833Z,1.00
2023-05-07T07:32:48.045Z,0.73
2023-05-07T07:35:16.392Z,0.80
2023-05-07T07:37:45.939Z,1.20
2023-05-07T07:40:14.907Z,0.60
2023-05-07T07:42:43.095Z,0.73
2023-05-07T07:45:11.535Z,0.50
2023-05-07T07:47:39.951Z,0.70
2023-05-07T07:50:09.528Z,0.60
2023-05-07T07:52:37.845Z,0.70
2023-05-07T07:55:08.759Z,0.88
2023-05-07T07:57:36.977Z,0.40
2023-05-07T08:00:08.208Z,0.70
2023-05-07T08:02:36.637Z,0.70
2023-05-07T08:05:05.169Z,0.60
2023-05-07T08:07:33.362Z,0.70
2023-05-07T08:10:01.554Z,0.80
2023-05-07T08:12:31.142Z,0.68
2023-05-07T08:14:59.309Z,0.80
2023-05-07T08:17:27.479Z,0.70
2023-05-07T08:19:55.644Z,0.60
2023-05-07T08:22:23.961Z,0.70
2023-05-07T08:24:52.697Z,1.80
2023-05-07T08:27:20.856Z,1.98
2023-05-07T08:29:50.924Z,2.30
2023-05-07T08:32:19.102Z,2.40
2023-05-07T08:34:47.435Z,2.90
2023-05-07T08:37:15.674Z,2.92
2023-05-07T08:39:43.851Z,3.08
2023-05-07T08:42:13.467Z,2.95
2023-05-07T08:44:43.061Z,2.90
2023-05-07T08:47:12.688Z,3.00
2023-05-07T08:49:41.064Z,3.00
2023-05-07T08:52:10.090Z,2.90
2023-05-07T08:54:39.802Z,2.70
2023-05-07T08:57:07.998Z,3.22
2023-05-07T08:59:37.822Z,2.50
2023-05-07T09:02:09.273Z,2.63
2023-05-07T09:04:39.662Z,2.35
2023-05-07T09:07:07.871Z,2.78
2023-05-07T09:09:36.099Z,2.20
2023-05-07T09:12:04.895Z,2.50
2023-05-07T09:14:33.332Z,2.45
2023-05-07T09:17:01.505Z,2.08
2023-05-07T09:19:30.183Z,2.10
2023-05-07T09:22:03.488Z,2.15
2023-05-07T09:24:35.891Z,1.95
2023-05-07T09:27:04.303Z,1.80
2023-05-07T09:29:36.373Z,1.98
2023-05-07T09:32:05.235Z,2.50
2023-05-07T09:34:33.542Z,2.38
2023-05-07T09:37:03.607Z,2.15
2023-05-07T09:39:41.823Z,2.20
2023-05-07T09:42:10.254Z,2.35
2023-05-07T09:44:38.808Z,2.05
2023-05-07T09:47:08.618Z,2.10
2023-05-07T09:49:37.829Z,2.17
2023-05-07T09:52:10.010Z,2.00
2023-05-07T09:54:39.908Z,2.20
2023-05-07T09:57:09.366Z,2.10
2023-05-07T09:59:39.319Z,2.08
2023-05-07T10:02:08.105Z,2.00
2023-05-07T10:04:36.656Z,2.00
2023-05-07T10:07:07.710Z,2.35
2023-05-07T10:09:39.468Z,2.10
2023-05-07T10:12:08.453Z,1.95
2023-05-07T10:14:36.970Z,2.05
2023-05-07T10:17:05.607Z,1.90
2023-05-07T10:19:35.199Z,1.90
2023-05-07T10:22:07.348Z,1.85
2023-05-07T10:24:37.881Z,2.13
2023-05-07T10:29:43.882Z,1.80
2023-05-07T10:32:30.073Z,1.40
2023-05-07T10:35:02.952Z,1.65
2023-05-07T10:37:33.146Z,1.50
2023-05-07T10:40:01.684Z,1.50
2023-05-07T10:42:29.938Z,1.30
2023-05-07T10:44:58.608Z,1.42
2023-05-07T10:47:26.828Z,1.70
2023-05-07T10:50:23.844Z,1.45
2023-05-07T10:53:30.625Z,1.90
2023-05-07T10:56:31.289Z,2.20
2023-05-07T10:59:33.399Z,8.30
2023-05-07T11:02:03.893Z,5.47
2023-05-07T11:07:40.507Z,2.47
2023-05-07T11:10:10.623Z,1.58
2023-05-07T11:12:52.843Z,1.40
2023-05-07T11:15:39.008Z,1.73
2023-05-07T11:18:07.534Z,1.80
2023-05-07T11:20:58.466Z,5.05
2023-05-07T11:23:59.299Z,1.08
2023-05-07T11:28:57.909Z,1.70
2023-05-07T11:31:29.298Z,1.55
2023-05-07T11:33:57.864Z,1.20
2023-05-07T11:36:27.184Z,0.98
2023-05-07T11:38:55.422Z,0.70
2023-05-07T11:41:23.790Z,0.80
2023-05-07T11:44:01.102Z,0.90
2023-05-07T11:46:30.866Z,0.80
2023-05-07T11:48:59.236Z,0.90
2023-05-07T11:51:30.992Z,1.02
2023-05-07T11:53:59.134Z,1.00
2023-05-07T11:56:27.354Z,0.80
2023-05-07T11:58:55.989Z,0.90
2023-05-07T12:01:25.592Z,1.10
2023-05-07T12:03:53.872Z,1.10
2023-05-07T12:06:22.092Z,1.30
2023-05-07T12:08:50.296Z,1.10
2023-05-07T12:11:24.640Z,1.10
2023-05-07T12:13:52.874Z,1.00
2023-05-07T12:16:21.996Z,1.00
2023-05-07T12:18:53.713Z,1.08
2023-05-07T12:21:22.061Z,0.98
2023-05-07T12:23:50.634Z,1.10
2023-05-07T12:26:18.807Z,1.10
2023-05-07T12:28:48.096Z,1.00
2023-05-07T12:31:17.133Z,0.98
2023-05-07T12:33:45.539Z,0.90
2023-05-07T12:36:15.560Z,1.08
2023-05-07T12:38:43.733Z,1.10
2023-05-07T12:41:13.544Z,1.20
2023-05-07T12:43:41.883Z,1.30
2023-05-07T12:46:10.502Z,1.08
2023-05-07T12:48:39.982Z,1.10
2023-05-07T12:51:11.244Z,1.40
2023-05-07T12:53:44.405Z,1.10
2023-05-07T12:56:12.668Z,1.10
2023-05-07T12:58:40.828Z,1.17
2023-05-07T13:01:11.191Z,1.10
2023-05-07T13:03:41.204Z,1.05
2023-05-07T13:06:13.216Z,1.08
2023-05-07T13:08:44.390Z,1.20
2023-05-07T13:11:13.448Z,1.00
2023-05-07T13:13:42.905Z,1.10
2023-05-07T13:16:12.939Z,1.30
2023-05-07T13:18:42.056Z,1.40
2023-05-07T13:21:11.211Z,1.23
2023-05-07T13:23:39.946Z,1.10
2023-05-07T13:26:22.480Z,1.30
2023-05-07T13:28:54.396Z,1.40
2023-05-07T13:31:23.037Z,1.20
2023-05-07T13:33:51.301Z,1.23
2023-05-07T13:36:19.499Z,1.38
2023-05-07T13:38:47.760Z,1.33
2023-05-07T13:41:17.442Z,1.48
2023-05-07T13:43:45.629Z,1.40
2023-05-07T13:46:14.223Z,1.70
2023-05-07T13:48:42.916Z,1.45
2023-05-07T13:51:11.403Z,1.60
2023-05-07T13:53:39.626Z,1.35
2023-05-07T13:56:08.009Z,1.50
2023-05-07T13:58:42.270Z,1.55
2023-05-07T14:01:13.511Z,1.70
2023-05-07T14:03:41.868Z,1.70
2023-05-07T14:06:10.269Z,1.70
2023-05-07T14:08:38.486Z,1.70
2023-05-07T14:11:06.984Z,1.40
2023-05-07T14:13:35.513Z,1.85
2023-05-07T14:16:07.271Z,1.80
2023-05-07T14:18:38.037Z,1.70
2023-05-07T14:21:08.626Z,1.67
2023-05-07T14:23:37.060Z,1.92
2023-05-07T14:26:05.396Z,1.77
2023-05-07T14:28:33.566Z,1.65
2023-05-07T14:31:02.028Z,1.80
2023-05-07T14:33:31.620Z,1.60
2023-05-07T14:35:59.795Z,2.00
2023-05-07T14:38:27.952Z,1.80
2023-05-07T14:40:57.228Z,1.63
2023-05-07T14:43:25.472Z,1.90
2023-05-07T14:45:54.170Z,1.80
2023-05-07T14:48:22.356Z,1.80
2023-05-07T14:50:51.947Z,2.00
2023-05-07T14:53:20.078Z,1.80
2023-05-07T14:55:49.815Z,2.00
2023-05-07T14:58:18.148Z,2.00
2023-05-07T15:00:46.333Z,2.10
2023-05-07T15:03:14.604Z,2.30
2023-05-07T15:05:43.575Z,2.10
2023-05-07T15:08:13.182Z,2.35
2023-05-07T15:10:42.597Z,2.13
2023-05-07T15:13:14.726Z,2.00
2023-05-07T15:15:45.003Z,2.08
2023-05-07T15:18:13.482Z,2.30
2023-05-07T15:20:41.915Z,2.22
2023-05-07T15:23:13.082Z,2.22
2023-05-07T15:25:42.854Z,2.25
2023-05-07T15:28:11.615Z,2.33
2023-05-07T15:30:39.853Z,2.20
2023-05-07T15:33:08.210Z,2.05
2023-05-07T15:35:36.456Z,1.90
2023-05-07T15:38:04.967Z,2.30
2023-05-07T15:40:33.908Z,2.70
2023-05-07T15:43:03.605Z,2.63
2023-05-07T15:45:31.941Z,2.65
2023-05-07T15:48:00.338Z,2.30
2023-05-07T15:50:29.630Z,2.30
2023-05-07T15:52:58.320Z,2.30
2023-05-07T15:55:26.670Z,2.13
2023-05-07T15:57:55.747Z,2.10
2023-05-07T16:00:28.282Z,2.00
2023-05-07T16:02:56.741Z,2.40
2023-05-07T16:05:25.335Z,2.03
2023-05-07T16:07:53.479Z,1.80
2023-05-07T16:10:21.684Z,2.00
2023-05-07T16:12:49.901Z,1.67
2023-05-07T16:15:18.091Z,1.80
2023-05-07T16:17:49.626Z,1.42
2023-05-07T16:20:20.039Z,1.33
2023-05-07T16:22:48.685Z,1.80
2023-05-07T16:25:16.983Z,1.52
2023-05-07T16:27:45.165Z,1.75
2023-05-07T16:30:13.683Z,1.50
2023-05-07T16:32:42.135Z,1.60
2023-05-07T16:35:12.584Z,1.70
2023-05-07T16:37:42.639Z,1.60
2023-05-07T16:40:11.681Z,1.58
2023-05-07T16:42:40.424Z,1.88
2023-05-07T16:45:09.748Z,1.88
2023-05-07T16:47:38.034Z,1.95
2023-05-07T16:50:07.077Z,2.10
2023-05-07T16:52:37.333Z,1.75
2023-05-07T16:55:06.186Z,2.05
2023-05-07T16:57:34.362Z,1.83
2023-05-07T17:00:02.556Z,2.05
2023-05-07T17:02:30.861Z,1.98
2023-05-07T17:04:59.077Z,1.90
2023-05-07T17:07:28.062Z,1.88
2023-05-07T17:09:57.628Z,2.00
2023-05-07T17:12:26.941Z,2.20
2023-05-07T17:14:55.159Z,1.88
2023-05-07T17:17:23.309Z,1.88
2023-05-07T17:19:51.507Z,2.33
2023-05-07T17:22:19.686Z,2.30
2023-05-07T17:24:47.871Z,2.45
2023-05-07T17:27:17.412Z,2.30
2023-05-07T17:29:45.797Z,2.30
2023-05-07T17:32:14.187Z,2.30
2023-05-07T17:34:42.494Z,2.20
2023-05-07T17:37:10.673Z,2.08
2023-05-07T17:39:38.815Z,2.15
2023-05-07T17:42:07.116Z,2.35
2023-05-07T17:44:36.819Z,2.50
2023-05-07T17:47:05.032Z,2.53
2023-05-07T17:49:33.179Z,2.20
2023-05-07T17:52:01.395Z,2.50
2023-05-07T17:54:30.376Z,2.90
2023-05-07T17:56:58.492Z,1.88
2023-05-07T17:59:27.042Z,2.10
2023-05-07T18:01:56.786Z,2.20
2023-05-07T18:04:26.907Z,2.63
2023-05-07T18:06:55.145Z,2.50
2023-05-07T18:09:23.342Z,1.50
2023-05-07T18:11:51.511Z,1.73
2023-05-07T18:14:24.310Z,1.95
2023-05-07T18:16:52.706Z,1.10
2023-05-07T18:19:22.570Z,1.20
2023-05-07T18:21:50.742Z,1.17
2023-05-07T18:24:19.899Z,0.75
2023-05-07T18:26:49.192Z,0.75
2023-05-07T18:29:17.360Z,0.90
2023-05-07T18:31:45.662Z,0.90
2023-05-07T18:34:14.429Z,0.77
2023-05-07T18:36:44.156Z,0.70
2023-05-07T18:39:12.408Z,0.82
2023-05-07T18:41:40.544Z,0.80
2023-05-07T18:44:08.682Z,1.00
2023-05-07T18:46:36.864Z,0.90
2023-05-07T18:49:05.065Z,1.10
2023-05-07T18:51:33.256Z,0.80
2023-05-07T18:54:03.292Z,1.23
2023-05-07T18:56:31.458Z,1.20
2023-05-07T18:58:59.610Z,1.00
2023-05-07T19:01:27.796Z,1.20
2023-05-07T19:03:56.025Z,1.10
2023-05-07T19:06:24.725Z,1.25
2023-05-07T19:08:52.946Z,1.10
2023-05-07T19:11:24.298Z,1.10
2023-05-07T19:13:52.592Z,1.25
2023-05-07T19:16:20.902Z,1.30
2023-05-07T19:18:49.229Z,1.40
2023-05-07T19:21:17.369Z,1.40
2023-05-07T19:23:46.580Z,1.85
2023-05-07T19:26:14.781Z,1.73
2023-05-07T19:28:45.370Z,1.65
2023-05-07T19:31:23.238Z,1.52
2023-05-07T19:33:51.600Z,1.85
2023-05-07T19:36:19.790Z,1.70
2023-05-07T19:38:49.978Z,1.60
2023-05-07T19:41:18.132Z,1.90
2023-05-07T19:43:47.775Z,1.77
2023-05-07T19:46:16.697Z,1.52
2023-05-07T19:48:45.710Z,1.42
2023-05-07T19:51:14.323Z,1.52
2023-05-07T19:53:42.519Z,1.52
2023-05-07T19:56:12.373Z,1.70
2023-05-07T19:58:40.726Z,1.40
2023-05-07T20:01:10.303Z,1.73
2023-05-07T20:03:38.629Z,1.20
2023-05-07T20:06:06.995Z,1.50
2023-05-07T20:08:35.243Z,1.20
2023-05-07T20:11:03.622Z,1.20
2023-05-07T20:13:32.101Z,1.17
2023-05-07T20:16:00.972Z,1.42
2023-05-07T20:18:31.044Z,1.25
2023-05-07T20:20:59.217Z,1.30
2023-05-07T20:23:27.529Z,1.10
2023-05-07T20:25:55.751Z,1.00
2023-05-07T20:28:23.929Z,1.10
2023-05-07T20:30:52.162Z,1.10
2023-05-07T20:33:20.311Z,1.27
2023-05-07T20:35:49.949Z,0.82
2023-05-07T20:38:18.148Z,0.98
2023-05-07T20:40:46.332Z,1.15
2023-05-07T20:43:14.538Z,1.08
2023-05-07T20:45:42.736Z,1.10
2023-05-07T20:48:11.058Z,1.73
2023-05-07T20:50:39.226Z,1.65
2023-05-07T20:53:08.751Z,1.85
2023-05-07T20:55:36.910Z,2.22
2023-05-07T20:58:05.083Z,2.22
2023-05-07T21:00:33.276Z,2.08
2023-05-07T21:03:01.725Z,2.00
2023-05-07T21:05:29.904Z,2.25
2023-05-07T21:07:58.077Z,2.30
2023-05-07T21:10:27.737Z,2.65
2023-05-07T21:12:55.949Z,2.03
2023-05-07T21:15:24.132Z,2.33
2023-05-07T21:17:52.408Z,1.10
2023-05-07T21:20:20.772Z,0.95
2023-05-07T21:22:48.904Z,1.15
2023-05-07T21:25:17.187Z,1.00
2023-05-07T21:27:46.707Z,0.85
2023-05-07T21:30:16.365Z,1.20
2023-05-07T21:32:44.593Z,1.30
2023-05-07T21:35:13.030Z,0.80
2023-05-07T21:37:41.184Z,1.27
2023-05-07T21:40:10.343Z,1.13
2023-05-07T21:42:38.576Z,1.10
2023-05-07T21:45:08.827Z,0.93
2023-05-07T21:47:37.035Z,1.08
2023-05-07T21:50:05.726Z,1.17
2023-05-07T21:52:33.899Z,1.20
2023-05-07T21:55:02.072Z,1.30
2023-05-07T21:57:30.231Z,1.02
2023-05-07T21:59:58.359Z,0.95
2023-05-07T22:02:27.992Z,1.10
2023-05-07T22:04:56.213Z,1.15
2023-05-07T22:07:24.383Z,0.90
2023-05-07T22:09:52.595Z,0.80
2023-05-07T22:12:20.998Z,0.90
2023-05-07T22:14:49.234Z,0.90
2023-05-07T22:17:17.356Z,0.80
2023-05-07T22:19:46.863Z,0.90
2023-05-07T22:22:15.009Z,0.90
2023-05-07T22:24:43.165Z,0.90
2023-05-07T22:27:11.292Z,0.90
2023-05-07T22:29:39.476Z,0.88
2023-05-07T22:32:08.786Z,0.70
2023-05-07T22:34:37.991Z,0.70
2023-05-07T22:37:07.582Z,0.75
2023-05-07T22:39:35.740Z,1.10
2023-05-07T22:42:03.962Z,0.70
2023-05-07T22:44:32.111Z,0.80
2023-05-07T22:47:00.274Z,0.85
2023-05-07T22:49:28.430Z,0.90
2023-05-07T22:51:56.579Z,0.73
2023-05-07T22:54:26.166Z,0.90
2023-05-07T22:56:54.523Z,0.75
2023-05-07T22:59:22.661Z,0.80
2023-05-07T23:01:50.864Z,0.88
2023-05-07T23:04:19.279Z,0.90
2023-05-07T23:06:47.999Z,0.80
2023-05-07T23:09:16.445Z,0.80
2023-05-07T23:11:46.022Z,0.80
2023-05-07T23:14:14.182Z,0.95
2023-05-07T23:16:42.808Z,0.60
2023-05-07T23:19:11.622Z,0.70
2023-05-07T23:21:39.762Z,0.70
2023-05-07T23:24:08.508Z,0.98
2023-05-07T23:26:36.665Z,0.60
2023-05-07T23:29:06.193Z,0.80
2023-05-07T23:31:34.396Z,0.70
2023-05-07T23:34:02.738Z,0.60
2023-05-07T23:36:31.515Z,0.70
2023-05-07T23:38:59.735Z,0.73
2023-05-07T23:41:28.190Z,0.70
2023-05-07T23:43:56.336Z,0.50
2023-05-07T23:46:26.904Z,0.43
2023-05-07T23:48:55.081Z,0.60
2023-05-07T23:51:23.251Z,0.60
2023-05-07T23:53:51.384Z,0.60
2023-05-07T23:56:19.639Z,0.57
2023-05-07T23:58:47.811Z,0.50
